createdAt,value
2019-03-01T00:02:48.372Z,8.71
2019-03-01T00:07:37.369Z,8.73
2019-03-01T00:11:53.150Z,8.80
2019-03-01T00:16:11.461Z,8.79
2019-03-01T00:20:52.195Z,8.80
2019-03-01T00:25:09.328Z,8.73
2019-03-01T00:29:51.353Z,8.74
2019-03-01T00:34:40.155Z,8.83
2019-03-01T00:39:18.789Z,8.77
2019-03-01T00:43:59.663Z,8.84
2019-03-01T00:48:04.841Z,8.83
2019-03-01T00:52:10.353Z,8.84
2019-03-01T00:56:15.487Z,8.76
2019-03-01T01:00:43.100Z,8.74
2019-03-01T01:04:48.244Z,8.59
2019-03-01T01:08:53.346Z,8.59
2019-03-01T01:12:58.524Z,8.56
2019-03-01T01:17:03.605Z,8.59
2019-03-01T01:21:08.744Z,8.61
2019-03-01T01:25:13.939Z,8.53
2019-03-01T01:29:19.110Z,8.53
2019-03-01T01:33:24.281Z,8.51
2019-03-01T01:37:29.441Z,8.46
2019-03-01T01:41:34.597Z,8.43
2019-03-01T01:45:39.707Z,8.41
2019-03-01T01:49:45.105Z,8.37
2019-03-01T01:53:50.553Z,8.32
2019-03-01T01:57:55.698Z,8.32
2019-03-01T02:02:01.759Z,8.31
2019-03-01T02:06:07.012Z,8.29
2019-03-01T02:10:12.105Z,8.26
2019-03-01T02:14:17.166Z,8.26
2019-03-01T02:18:22.220Z,8.28
2019-03-01T02:22:27.413Z,8.27
2019-03-01T02:26:32.552Z,8.27
2019-03-01T02:30:37.706Z,8.24
2019-03-01T02:34:42.716Z,8.28
2019-03-01T02:38:47.909Z,8.23
2019-03-01T02:42:53.420Z,8.21
2019-03-01T02:46:58.557Z,8.21
2019-03-01T02:51:03.619Z,8.20
2019-03-01T02:55:09.613Z,8.17
2019-03-01T02:59:14.755Z,8.15
2019-03-01T03:03:19.914Z,8.15
2019-03-01T03:07:32.910Z,8.11
2019-03-01T03:11:37.987Z,8.12
2019-03-01T03:15:45.565Z,8.08
2019-03-01T03:19:50.674Z,8.09
2019-03-01T03:23:55.819Z,8.07
2019-03-01T03:28:00.916Z,8.14
2019-03-01T03:32:05.991Z,8.05
2019-03-01T03:36:11.068Z,8.08
2019-03-01T03:40:16.488Z,8.08
2019-03-01T03:44:21.567Z,8.14
2019-03-01T03:48:26.794Z,8.14
2019-03-01T03:52:31.944Z,8.10
2019-03-01T03:56:37.077Z,8.07
2019-03-01T04:00:42.298Z,8.14
2019-03-01T04:04:47.369Z,8.07
2019-03-01T04:08:52.577Z,8.07
2019-03-01T04:12:58.569Z,8.11
2019-03-01T04:17:03.754Z,8.11
2019-03-01T04:21:08.837Z,8.07
2019-03-01T04:25:14.001Z,8.13
2019-03-01T04:29:19.005Z,8.15
2019-03-01T04:33:24.041Z,8.15
2019-03-01T04:37:29.156Z,8.14
2019-03-01T04:41:34.206Z,8.13
2019-03-01T04:45:39.417Z,8.11
2019-03-01T04:49:46.271Z,8.13
2019-03-01T04:53:51.482Z,8.13
2019-03-01T04:57:56.624Z,8.06
2019-03-01T05:02:01.817Z,8.11
2019-03-01T05:06:06.951Z,8.11
2019-03-01T05:10:12.319Z,8.09
2019-03-01T05:14:17.515Z,8.08
2019-03-01T05:18:22.685Z,8.03
2019-03-01T05:22:27.720Z,8.04
2019-03-01T05:26:32.804Z,8.02
2019-03-01T05:30:37.885Z,8.07
2019-03-01T05:34:43.032Z,8.07
2019-03-01T05:38:48.110Z,8.04
2019-03-01T05:42:53.316Z,7.99
2019-03-01T05:47:00.753Z,8.01
2019-03-01T05:51:05.874Z,7.96
2019-03-01T05:55:11.126Z,7.96
2019-03-01T05:59:21.656Z,7.95
2019-03-01T06:03:56.158Z,7.90
2019-03-01T06:08:39.500Z,7.92
2019-03-01T06:13:23.180Z,7.96
2019-03-01T06:17:57.802Z,7.94
2019-03-01T06:22:56.249Z,7.97
2019-03-01T06:27:46.088Z,7.90
2019-03-01T06:32:34.912Z,7.82
2019-03-01T06:37:03.984Z,7.85
2019-03-01T06:41:35.281Z,7.85
2019-03-01T06:46:17.389Z,7.75
2019-03-01T06:50:44.194Z,7.75
2019-03-01T06:54:49.660Z,7.62
2019-03-01T06:58:59.913Z,7.49
2019-03-01T07:03:05.111Z,7.44
2019-03-01T07:07:10.487Z,7.45
2019-03-01T07:11:15.853Z,7.44
2019-03-01T07:15:21.070Z,7.47
2019-03-01T07:19:26.149Z,7.35
2019-03-01T07:23:36.808Z,7.35
2019-03-01T07:27:39.777Z,7.34
2019-03-01T07:31:44.894Z,7.21
2019-03-01T07:35:51.016Z,7.22
2019-03-01T07:39:56.049Z,7.10
2019-03-01T07:44:01.673Z,7.07
2019-03-01T07:48:06.786Z,6.97
2019-03-01T07:52:12.051Z,6.76
2019-03-01T07:56:17.154Z,6.70
2019-03-01T08:00:22.362Z,6.60
2019-03-01T08:04:29.552Z,6.63
2019-03-01T08:08:34.885Z,6.67
2019-03-01T08:12:42.500Z,6.78
2019-03-01T08:16:47.988Z,6.81
2019-03-01T08:20:53.141Z,6.68
2019-03-01T08:24:58.285Z,6.57
2019-03-01T08:29:03.553Z,6.54
2019-03-01T08:33:08.799Z,6.51
2019-03-01T08:37:14.513Z,6.64
2019-03-01T08:41:21.520Z,6.61
2019-03-01T08:45:29.687Z,6.52
2019-03-01T08:49:34.809Z,6.57
2019-03-01T08:53:39.888Z,6.54
2019-03-01T08:57:44.999Z,6.50
2019-03-01T09:01:50.206Z,6.40
2019-03-01T09:05:55.433Z,6.48
2019-03-01T09:10:00.611Z,6.35
2019-03-01T09:14:05.782Z,6.43
2019-03-01T09:18:14.571Z,6.43
2019-03-01T09:22:19.231Z,6.40
2019-03-01T09:26:24.533Z,6.46
2019-03-01T09:30:29.775Z,6.37
2019-03-01T09:34:34.972Z,6.44
2019-03-01T09:38:42.920Z,6.39
2019-03-01T09:42:51.267Z,6.38
2019-03-01T09:46:54.678Z,6.48
2019-03-01T09:50:59.857Z,6.45
2019-03-01T09:55:05.578Z,6.52
2019-03-01T09:59:11.061Z,6.50
2019-03-01T10:03:16.251Z,6.55
2019-03-01T10:07:21.413Z,6.49
2019-03-01T10:11:26.491Z,6.52
2019-03-01T10:15:31.665Z,6.53
2019-03-01T10:19:36.748Z,6.61
2019-03-01T10:23:41.970Z,6.61
2019-03-01T10:27:47.384Z,6.66
2019-03-01T10:31:52.538Z,6.66
2019-03-01T10:35:57.805Z,6.69
2019-03-01T10:40:03.916Z,6.69
2019-03-01T10:44:09.022Z,6.77
2019-03-01T10:48:14.150Z,6.90
2019-03-01T10:52:19.229Z,6.88
2019-03-01T10:56:24.439Z,6.82
2019-03-01T11:00:29.736Z,6.77
2019-03-01T11:04:35.002Z,6.80
2019-03-01T11:08:40.043Z,6.70
2019-03-01T11:12:45.262Z,6.64
2019-03-01T11:16:50.722Z,6.73
2019-03-01T11:20:55.842Z,6.78
2019-03-01T11:25:00.967Z,6.86
2019-03-01T11:29:06.126Z,6.91
2019-03-01T11:33:11.322Z,6.91
2019-03-01T11:37:16.480Z,6.79
2019-03-01T11:41:21.616Z,6.78
2019-03-01T11:45:26.678Z,6.86
2019-03-01T11:49:31.855Z,6.81
2019-03-01T11:53:37.043Z,6.82
2019-03-01T11:57:42.190Z,6.81
2019-03-01T12:01:47.317Z,6.79
2019-03-01T12:05:55.727Z,6.74
2019-03-01T12:10:00.855Z,6.79
2019-03-01T12:14:06.144Z,6.83
2019-03-01T12:18:11.336Z,6.91
2019-03-01T12:22:17.329Z,6.91
2019-03-01T12:26:22.473Z,6.97
2019-03-01T12:30:27.688Z,6.57
2019-03-01T12:34:33.228Z,6.39
2019-03-01T12:38:39.286Z,6.31
2019-03-01T12:42:44.406Z,6.12
2019-03-01T12:46:49.593Z,6.24
2019-03-01T12:50:55.083Z,6.11
2019-03-01T12:55:00.436Z,6.17
2019-03-01T12:59:05.574Z,6.04
2019-03-01T13:03:10.656Z,5.89
2019-03-01T13:07:15.765Z,5.63
2019-03-01T13:11:20.805Z,5.68
2019-03-01T13:15:28.126Z,5.81
2019-03-01T13:19:33.246Z,5.63
2019-03-01T13:23:40.471Z,5.77
2019-03-01T13:27:48.660Z,5.69
2019-03-01T13:31:52.301Z,5.69
2019-03-01T13:35:59.959Z,5.91
2019-03-01T13:40:06.308Z,6.02
2019-03-01T13:44:11.728Z,6.05
2019-03-01T13:48:18.948Z,6.07
2019-03-01T13:52:26.673Z,5.97
2019-03-01T13:56:32.799Z,6.01
2019-03-01T14:00:39.796Z,6.02
2019-03-01T14:04:44.974Z,6.17
2019-03-01T14:08:50.086Z,5.94
2019-03-01T14:12:55.287Z,5.94
2019-03-01T14:17:00.750Z,5.93
2019-03-01T14:21:06.324Z,6.01
2019-03-01T14:25:11.673Z,6.09
2019-03-01T14:29:17.807Z,6.01
2019-03-01T14:33:22.996Z,6.00
2019-03-01T14:37:28.421Z,5.93
2019-03-01T14:41:35.081Z,5.93
2019-03-01T14:45:41.658Z,6.02
2019-03-01T14:49:47.424Z,6.09
2019-03-01T14:53:52.574Z,5.97
2019-03-01T14:58:24.521Z,5.96
2019-03-01T15:02:44.121Z,5.99
2019-03-01T15:06:51.338Z,6.10
2019-03-01T15:10:56.294Z,6.05
2019-03-01T15:15:01.588Z,5.99
2019-03-01T15:19:09.018Z,6.12
2019-03-01T15:23:15.514Z,6.11
2019-03-01T15:27:20.544Z,6.32
2019-03-01T15:31:25.771Z,6.36
2019-03-01T15:35:30.897Z,6.42
2019-03-01T15:39:36.130Z,6.24
2019-03-01T15:43:41.274Z,6.40
2019-03-01T15:47:46.859Z,6.36
2019-03-01T15:51:51.996Z,6.35
2019-03-01T15:55:57.141Z,6.30
2019-03-01T16:00:03.449Z,6.26
2019-03-01T16:04:10.331Z,6.30
2019-03-01T16:08:15.443Z,6.32
2019-03-01T16:12:20.531Z,6.23
2019-03-01T16:16:25.675Z,6.28
2019-03-01T16:20:30.813Z,6.17
2019-03-01T16:24:37.566Z,6.19
2019-03-01T16:28:42.805Z,6.18
2019-03-01T16:32:50.392Z,6.10
2019-03-01T16:36:56.963Z,6.12
2019-03-01T16:41:07.442Z,6.16
2019-03-01T16:45:09.885Z,6.09
2019-03-01T16:49:15.404Z,6.05
2019-03-01T16:53:20.504Z,6.03
2019-03-01T16:57:25.733Z,5.99
2019-03-01T17:01:30.880Z,5.96
2019-03-01T17:05:38.736Z,5.94
2019-03-01T17:09:47.319Z,5.96
2019-03-01T17:13:51.705Z,5.97
2019-03-01T17:17:56.956Z,5.93
2019-03-01T17:22:03.071Z,5.94
2019-03-01T17:26:08.173Z,5.90
2019-03-01T17:30:17.693Z,5.84
2019-03-01T17:34:25.765Z,5.83
2019-03-01T17:38:30.069Z,5.80
2019-03-01T17:42:35.295Z,5.79
2019-03-01T17:46:40.343Z,5.75
2019-03-01T17:50:45.682Z,5.76
2019-03-01T17:54:51.941Z,5.72
2019-03-01T17:58:57.136Z,5.72
2019-03-01T18:03:02.525Z,5.72
2019-03-01T18:07:07.731Z,5.59
2019-03-01T18:11:12.867Z,5.72
2019-03-01T18:15:18.031Z,5.65
2019-03-01T18:19:23.789Z,5.58
2019-03-01T18:23:29.979Z,5.55
2019-03-01T18:27:35.094Z,5.66
2019-03-01T18:31:40.482Z,5.63
2019-03-01T18:35:45.728Z,5.63
2019-03-01T18:39:50.835Z,5.52
2019-03-01T18:43:55.982Z,5.56
2019-03-01T18:48:01.106Z,5.50
2019-03-01T18:52:06.228Z,5.53
2019-03-01T18:56:11.697Z,5.49
2019-03-01T19:00:22.360Z,5.50
2019-03-01T19:04:29.651Z,5.51
2019-03-01T19:08:36.460Z,5.45
2019-03-01T19:12:44.941Z,5.52
2019-03-01T19:16:48.697Z,5.51
2019-03-01T19:20:53.894Z,5.43
2019-03-01T19:24:59.083Z,5.53
2019-03-01T19:29:05.228Z,5.54
2019-03-01T19:33:10.405Z,5.48
2019-03-01T19:37:15.636Z,5.52
2019-03-01T19:41:22.941Z,5.55
2019-03-01T19:45:27.591Z,5.50
2019-03-01T19:49:34.136Z,5.50
2019-03-01T19:53:39.334Z,5.45
2019-03-01T19:57:44.439Z,5.41
2019-03-01T20:01:52.385Z,5.46
2019-03-01T20:05:56.420Z,5.62
2019-03-01T20:10:01.533Z,5.54
2019-03-01T20:14:11.960Z,5.54
2019-03-01T20:18:23.518Z,5.57
2019-03-01T20:22:27.874Z,5.55
2019-03-01T20:26:39.509Z,5.55
2019-03-01T20:30:41.064Z,5.60
2019-03-01T20:34:46.218Z,5.51
2019-03-01T20:38:51.313Z,5.47
2019-03-01T20:43:06.608Z,5.50
2019-03-01T20:47:06.395Z,5.60
2019-03-01T20:51:17.360Z,5.63
2019-03-01T20:55:26.132Z,5.59
2019-03-01T20:59:32.880Z,5.54
2019-03-01T21:03:38.087Z,5.62
2019-03-01T21:07:43.384Z,5.57
2019-03-01T21:11:52.108Z,5.54
2019-03-01T21:15:58.222Z,5.45
2019-03-01T21:20:04.688Z,5.55
2019-03-01T21:24:10.300Z,5.50
2019-03-01T21:28:15.418Z,5.50
2019-03-01T21:32:20.484Z,5.57
2019-03-01T21:36:27.123Z,5.57
2019-03-01T21:40:34.587Z,5.51
2019-03-01T21:44:42.589Z,5.49
2019-03-01T21:48:46.345Z,5.59
2019-03-01T21:52:51.558Z,5.54
2019-03-01T21:56:57.093Z,5.53
2019-03-01T22:01:02.663Z,5.57
2019-03-01T22:05:10.357Z,5.54
2019-03-01T22:09:16.806Z,5.54
2019-03-01T22:13:21.902Z,5.53
2019-03-01T22:17:27.261Z,5.60
2019-03-01T22:21:32.428Z,5.64
2019-03-01T22:25:37.901Z,5.57
2019-03-01T22:29:43.596Z,5.58
2019-03-01T22:33:55.873Z,5.54
2019-03-01T22:38:05.497Z,5.48
2019-03-01T22:42:15.781Z,5.46
2019-03-01T22:46:27.997Z,5.50
2019-03-01T22:50:39.499Z,5.47
2019-03-01T22:54:46.036Z,5.49
2019-03-01T22:58:54.777Z,5.49
2019-03-01T23:02:59.984Z,5.50
2019-03-01T23:07:05.270Z,5.54
2019-03-01T23:11:15.928Z,5.49
2019-03-01T23:15:27.642Z,5.50
2019-03-01T23:19:30.918Z,5.48
2019-03-01T23:23:38.863Z,5.53
2019-03-01T23:27:43.976Z,5.53
2019-03-01T23:31:49.109Z,5.47
2019-03-01T23:35:54.319Z,5.51
2019-03-01T23:40:00.986Z,5.57
2019-03-01T23:44:17.303Z,5.56
2019-03-01T23:48:22.405Z,5.56
2019-03-01T23:52:27.523Z,5.43
2019-03-01T23:56:32.636Z,5.52
